• Join FlightAware (Why Join?)
  • Login
  • US Flag 
05:20PM EDT


 

Airport Tracker/Info


-or-


 

Live Flight TrackerFlight Track Log ✈ BER8752 ✈ 14-Apr-2013 ✈ EDDT / TXL - LOWW / VIE

Flight Track Log - Related Links

Times and Time Zones

All times are in EDT time to prevent confusion due to time zone crossing. See the BER8752 flight status page for this flight to view local times or setup timezone preferences in your user account.

Time Position Orientation Groundspeed Altitude Reporting Facility
EDT Latitude Longitude Course Direction KTS MPH feet Rate Location/Type
04:47PM 51.3642 14.2387 154° Southeast  Level Estimated
04:48PM 51.2720 14.3098 154° Southeast  Level Estimated
04:49PM 51.1797 14.3806 154° Southeast  Level Estimated
04:50PM 51.0873 14.4511 154° Southeast  Level Estimated
04:51PM 50.9949 14.5213 154° Southeast  Level Estimated
04:52PM 50.9025 14.5913 154° Southeast  Level Estimated
04:53PM 50.8100 14.6610 155° Southeast  Level Estimated
04:54PM 50.7175 14.7304 155° Southeast  Level Estimated
04:55PM 50.6249 14.7995 155° Southeast  Level Estimated
04:56PM 50.5323 14.8684 155° Southeast  Level Estimated
04:57PM 50.4397 14.9370 155° Southeast  Level Estimated
04:58PM 50.3470 15.0053 155° Southeast  Level Estimated
04:59PM 50.2543 15.0733 155° Southeast  Level Estimated
05:00PM 50.1615 15.1411 155° Southeast  Level Estimated
05:01PM 50.0687 15.2087 155° Southeast  Level Estimated
05:02PM 49.9759 15.2759 155° Southeast  Level Estimated
05:03PM 49.8830 15.3429 155° Southeast  Level Estimated
05:04PM 49.7901 15.4097 155° Southeast  Level Estimated
05:05PM 49.6971 15.4762 155° Southeast  Level Estimated
05:06PM 49.6041 15.5424 155° Southeast  Level Estimated
05:07PM 49.5111 15.6084 155° Southeast  Level Estimated
05:08PM 49.4180 15.6742 155° Southeast  Level Estimated
05:09PM 49.3249 15.7396 155° Southeast  Level Estimated
05:10PM 49.2318 15.8049 155° Southeast  Level Estimated
05:11PM 49.1386 15.8699 155° Southeast  Level Estimated
05:12PM 49.0454 15.9346 156° South  Level Estimated
05:13PM 48.9521 15.9992 156° South  Level Estimated
05:14PM 48.8588 16.0634 156° South  Level Estimated
05:15PM 48.7655 16.1275 156° South  Level Estimated
05:16PM 48.6721 16.1912 156° South  Level Estimated
05:17PM 48.5787 16.2548 156° South  Level Estimated
05:18PM 48.4853 16.3181 156° South  Level Estimated
05:19PM 48.3918 16.3812 156° South  Level Estimated
05:20PM 48.2983 16.4441 156° South  Level Estimated
05:21PM 48.2048 16.5067 156° South  Level Estimated
05:22PM 48.1112 16.5691 156° South  Level Estimated
05:23PM 48.1103 16.5697 156° South  Level Estimated
05:24PM 48.1103 16.5697 146° Southeast  Level Estimated
05:25PM 48.1103 16.5697 146° Southeast  Level Estimated
05:26PM 48.1103 16.5697 146° Southeast  Level Estimated
05:27PM 48.1103 16.5697 146° Southeast  Level Estimated
05:28PM 48.1103 16.5697 146° Southeast  Level Estimated
05:29PM 48.1103 16.5697 146° Southeast  Level Estimated
05:30PM 48.1103 16.5697 146° Southeast  Level Estimated
05:31PM 48.1103 16.5697 146° Southeast  Level Estimated
05:32PM 48.1103 16.5697 146° Southeast  Level Estimated
05:33PM 48.1103 16.5697 146° Southeast  Level Estimated
05:34PM 48.1103 16.5697 146° Southeast  Level Estimated
05:35PM 48.1103 16.5697 146° Southeast  Level Estimated